Latest Weather Observations for Middle Point

IDD60801

Issued at 1:31 pm CST Wednesday 5 August 2015 (issued every 30 minutes, with the page automatically refreshed every 10 minutes)

About weather observations | Map of weather stations | Latest weather observations for NT | Other Formats
Station Details ID: 014041 Name: MIDDLE POINT Lat: -12.61 Lon: 131.30 Height: 14.1 m
Data from the previous 72 hours. | See also: Recent months at Middle Point
Date/Time
CST
Temp
°C
App
Temp
°C
Dew
Point
Rel
Hum
%
Delta-T
°C
Wind Press
QNH
hPa
Press
MSL
hPa
Rain
since 9 am
mm
Dir
 
Spd
km/h
Gust
km/h
Spd
kts
Gust
kts
05/01:30pm 30.0 24.2 -1.4 13 14.6 SE 19 28 10 15 1013.4 1013.3 0.0
05/01:00pm 29.9 24.1 -1.5 13 14.6 SE 19 28 10 15 1014.0 1013.9 0.0
05/12:30pm 29.4 23.5 -0.9 14 14.2 SE 20 28 11 15 1014.6 1014.5 0.0
05/12:00pm 29.1 23.4 -1.1 14 14.0 SE 19 32 10 17 1015.3 1015.2 0.0
05/11:30am 28.4 22.5 -0.7 15 13.6 SSE 20 30 11 16 1015.9 1015.8 0.0
05/11:00am 26.7 20.7 -1.2 16 12.7 SE 20 32 11 17 1016.4 1016.3 0.0
05/10:30am 25.4 19.5 -0.6 18 11.8 SE 20 30 11 16 1016.8 1016.7 0.0
05/10:00am 24.9 18.3 -0.3 19 11.5 ESE 24 35 13 19 1016.9 1016.8 0.0
05/09:30am 23.8 17.3 0.2 21 10.8 SE 24 33 13 18 1017.0 1016.9 0.0
05/09:00am 22.9 17.5 2.4 26 9.7 SE 20 30 11 16 1016.8 1016.7 0.0
05/08:30am 19.8 16.8 5.8 40 6.9 S 11 15 6 8 1016.5 1016.4 0.0
05/08:00am 16.7 14.7 8.7 59 4.1 S 9 13 5 7 1016.4 1016.3 0.0
05/07:30am 13.1 11.3 8.0 71 2.5 S 7 9 4 5 1016.1 1016.0 0.0
05/07:00am 11.1 9.1 7.2 77 1.9 S 7 9 4 5 1015.7 1015.6 0.0
05/06:30am 11.3 9.7 7.8 79 1.7 SSW 6 7 3 4 1015.5 1015.4 0.0
05/06:00am 9.7 8.4 7.6 87 1.0 SW 4 6 2 3 1015.2 1015.1 0.0
05/05:30am 9.9 8.5 7.2 83 1.3 W 4 4 2 2 1014.8 1014.7 0.0
05/05:00am 11.4 10.8 8.8 84 1.3 WNW 2 4 1 2 1014.5 1014.4 0.0
05/04:30am 10.7 9.1 7.8 82 1.4 WNW 6 7 3 4 1014.3 1014.2 0.0
05/04:00am 10.9 9.6 7.8 81 1.5 NW 4 6 2 3 1014.1 1014.0 0.0
05/03:30am 11.5 11.2 8.5 82 1.5 CALM 0 0 0 0 1014.1 1014.0 0.0
05/03:00am 11.9 10.3 8.0 77 1.9 SSE 6 7 3 4 1014.1 1014.0 0.0
05/02:30am 13.5 12.1 9.0 74 2.3 SSE 6 6 3 3 1014.1 1014.0 0.0
05/02:00am 13.3 11.8 9.2 76 2.1 SSE 7 9 4 5 1014.3 1014.2 0.0
05/01:30am 12.9 11.5 9.0 77 2.0 SSW 6 7 3 4 1014.4 1014.3 0.0
05/01:00am 14.1 14.3 10.5 79 1.9 CALM 0 0 0 0 1014.6 1014.5 0.0
05/12:30am 13.8 13.7 9.6 76 2.2 CALM 0 0 0 0 1014.5 1014.4 0.0
05/12:00am 15.6 15.5 10.8 73 2.5 SSE 2 4 1 2 1014.5 1014.4 0.0
 
Date/Time
CST
Temp
°C
App
Temp
°C
Dew
Point
Rel
Hum
%
Delta-T
°C
Wind Press
QNH
hPa
Press
MSL
hPa
Rain
since 9 am
mm
Dir
 
Spd
km/h
Gust
km/h
Spd
kts
Gust
kts
04/11:30pm 15.6 15.2 11.2 75 2.4 SSW 4 6 2 3 1014.6 1014.5 0.0
04/11:00pm 14.6 13.9 10.2 75 2.3 WNW 4 6 2 3 1014.6 1014.5 0.0
04/10:30pm 15.3 14.2 10.1 71 2.7 WNW 6 7 3 4 1014.5 1014.4 0.0
04/10:00pm 17.8 17.3 9.4 58 4.4 NE 2 4 1 2 1014.4 1014.3 0.0
04/09:30pm 20.4 20.1 11.6 57 4.9 NE 4 11 2 6 1014.3 1014.2 0.0
04/09:00pm 21.3 20.7 10.5 50 5.9 NNE 4 6 2 3 1014.1 1014.0 0.0
04/08:30pm 18.5 17.1 9.6 56 4.7 N 7 9 4 5 1013.6 1013.5 0.0
04/08:00pm 20.4 19.6 6.7 41 6.9 CALM 0 0 0 0 1013.0 1012.9 0.0
04/07:30pm 24.2 21.8 5.1 29 9.6 SE 7 9 4 5 1012.6 1012.5 0.0
04/07:00pm 26.4 23.5 4.8 25 11.0 SE 9 13 5 7 1012.3 1012.2 0.0
04/06:30pm 28.4 25.1 4.6 22 12.2 SE 11 17 6 9 1012.1 1012.0 0.0
04/06:00pm 30.2 26.9 4.8 20 13.2 SE 11 19 6 10 1012.0 1011.9 0.0
04/05:30pm 31.4 26.9 4.2 18 14.1 SE 17 24 9 13 1011.8 1011.7 0.0
04/05:00pm 31.8 27.0 4.6 18 14.2 SE 19 30 10 16 1011.7 1011.6 0.0
04/04:30pm 32.3 27.4 4.2 17 14.6 SE 19 28 10 15 1011.6 1011.5 0.0
04/04:00pm 32.1 27.7 4.8 18 14.3 ESE 17 26 9 14 1011.7 1011.6 0.0
04/03:30pm 32.9 28.1 4.6 17 14.9 SE 19 32 10 17 1011.9 1011.8 0.0
04/03:00pm 33.1 28.5 5.6 18 14.7 ESE 19 28 10 15 1012.2 1012.1 0.0
04/02:30pm 32.7 27.5 5.3 18 14.6 SE 22 30 12 16 1012.8 1012.7 0.0
04/02:00pm 32.9 28.4 7.0 20 14.2 ESE 20 37 11 20 1013.5 1013.4 0.0
04/01:30pm 32.2 27.3 7.1 21 13.7 SE 22 33 12 18 1014.1 1014.0 0.0
04/01:00pm 31.7 27.1 8.0 23 13.1 ESE 22 32 12 17 1014.7 1014.6 0.0
04/12:30pm 30.7 26.3 9.0 26 12.1 SE 22 35 12 19 1015.4 1015.3 0.0
04/12:00pm 31.3 27.8 10.1 27 12.1 ESE 19 28 10 15 1016.0 1015.9 0.0
04/11:30am 29.8 26.2 9.9 29 11.2 SE 19 30 10 16 1016.5 1016.4 0.0
04/11:00am 29.6 26.2 10.7 31 10.8 SE 19 24 10 13 1016.8 1016.7 0.0
04/10:30am 29.2 25.9 10.8 32 10.5 SE 19 32 10 17 1017.1 1017.0 0.0
04/10:00am 27.2 24.5 12.8 41 8.4 SE 19 24 10 13 1017.4 1017.3 0.0
04/09:30am 26.1 25.7 15.2 51 6.6 SE 11 20 6 11 1017.4 1017.3 0.0
04/09:00am 23.6 24.7 18.0 71 3.5 S 9 13 5 7 1017.5 1017.4 0.0
04/08:30am 20.8 22.0 18.2 85 1.6 SSE 9 11 5 6 1017.1 1017.0 0.0
04/08:00am 18.7 19.9 17.4 92 0.8 SSE 7 9 4 5 1016.8 1016.7 0.0
04/07:30am 17.2 17.6 16.2 94 0.6 S 9 11 5 6 1016.4 1016.3 0.0
04/07:00am 15.7 16.5 14.7 94 0.6 S 4 9 2 5 1016.1 1016.0 0.0
04/06:30am 15.8 15.6 14.8 94 0.6 S 9 11 5 6 1015.8 1015.7 0.0
04/06:00am 14.9 16.0 13.6 92 0.7 CALM 0 0 0 0 1015.3 1015.2 0.0
04/05:30am 14.6 15.6 13.3 92 0.7 CALM 0 0 0 0 1015.1 1015.0 0.0
04/05:00am 14.4 15.4 13.1 92 0.7 CALM 0 0 0 0 1015.0 1014.9 0.0
04/04:30am 15.0 15.9 13.0 88 1.1 CALM 0 0 0 0 1015.0 1014.9 0.0
04/04:00am 16.4 18.0 14.9 91 0.9 CALM 0 0 0 0 1014.9 1014.8 0.0
04/03:30am 15.9 17.2 14.1 89 1.0 CALM 0 0 0 0 1014.8 1014.7 0.0
04/03:00am 16.1 17.2 14.6 91 0.9 NNW 2 4 1 2 1014.8 1014.7 0.0
04/02:30am 16.1 16.9 13.6 85 1.4 NNE 2 4 1 2 1015.2 1015.1 0.0
04/02:00am 18.2 19.5 16.2 88 1.2 E 4 4 2 2 1015.7 1015.6 0.0
04/01:30am 19.5 21.9 17.1 86 1.5 CALM 0 0 0 0 1015.8 1015.7 0.0
04/01:00am 19.0 21.1 17.1 89 1.2 W 2 4 1 2 1015.7 1015.6 0.0
04/12:30am 18.9 20.4 16.7 87 1.3 W 4 4 2 2 1015.9 1015.8 0.0
04/12:00am 17.4 17.0 14.1 81 1.9 WSW 9 9 5 5 1015.9 1015.8 0.0
 
Date/Time
CST
Temp
°C
App
Temp
°C
Dew
Point
Rel
Hum
%
Delta-T
°C
Wind Press
QNH
hPa
Press
MSL
hPa
Rain
since 9 am
mm
Dir
 
Spd
km/h
Gust
km/h
Spd
kts
Gust
kts
03/11:30pm 16.9 16.8 13.4 80 2.0 WSW 6 7 3 4 1015.7 1015.6 0.0
03/11:00pm 17.9 17.8 13.4 75 2.5 W 6 7 3 4 1015.8 1015.7 0.0
03/10:30pm 18.0 17.9 13.3 74 2.7 WSW 6 7 3 4 1015.7 1015.6 0.0
03/10:00pm 18.9 19.0 14.0 73 2.8 W 6 6 3 3 1015.5 1015.4 0.0
03/09:30pm 17.9 17.9 13.6 76 2.4 WSW 6 9 3 5 1015.4 1015.3 0.0
03/09:00pm 17.7 17.3 13.0 74 2.6 WSW 7 9 4 5 1014.9 1014.8 0.0
03/08:30pm 19.0 19.6 13.0 68 3.4 N 2 4 1 2 1014.5 1014.4 0.0
03/08:00pm 20.8 22.0 13.7 64 4.1 CALM 0 0 0 0 1014.1 1014.0 0.0
03/07:30pm 23.9 24.4 15.1 58 5.3 N 6 7 3 4 1013.6 1013.5 0.0
03/07:00pm 24.7 24.8 14.5 53 6.1 NNW 7 9 4 5 1013.3 1013.2 0.0
03/06:30pm 26.8 25.6 13.9 45 7.7 N 13 17 7 9 1012.9 1012.8 0.0
03/06:00pm 29.3 27.2 13.5 38 9.4 N 17 20 9 11 1012.5 1012.4 0.0
03/05:30pm 31.5 29.4 11.3 29 11.7 NE 13 20 7 11 1012.3 1012.2 0.0
03/05:00pm 33.8 30.5 6.2 18 15.0 ESE 13 24 7 13 1011.9 1011.8 0.0
03/04:30pm 33.7 29.2 6.1 18 14.9 SE 19 28 10 15 1012.0 1011.9 0.0
03/04:00pm 34.7 30.2 6.9 18 15.3 E 20 32 11 17 1011.9 1011.8 0.0
03/03:30pm 34.2 30.3 8.8 21 14.4 ESE 19 28 10 15 1012.3 1012.2 0.0
03/03:00pm 34.1 30.2 8.7 21 14.3 SE 19 30 10 16 1012.4 1012.3 0.0
03/02:30pm 33.6 28.6 9.6 23 13.7 ESE 26 37 14 20 1012.8 1012.7 0.0
03/02:00pm 33.8 29.4 9.1 22 14.0 ESE 22 35 12 19 1013.4 1013.3 0.0
03/01:30pm 33.8 30.2 10.4 24 13.5 ESE 20 33 11 18 1013.8 1013.7 0.0
03/01:00pm 33.4 30.8 10.7 25 13.2 E 15 28 8 15 1014.5 1014.4 0.0
03/12:30pm 32.3 30.1 12.0 29 12.0 SE 15 24 8 13 1014.9 1014.8 0.0
03/12:00pm 32.2 30.1 12.4 30 11.7 ESE 15 24 8 13 1015.5 1015.4 0.0
03/11:30am 31.2 29.7 13.0 33 10.8 E 13 26 7 14 1016.2 1016.1 0.0
03/11:00am 30.1 28.7 14.6 39 9.4 NE 15 22 8 12 1016.6 1016.5 0.0
03/10:30am 28.6 28.3 15.5 45 8.0 NE 11 19 6 10 1016.8 1016.7 0.0
03/10:00am 27.7 28.9 16.9 51 6.7 NE 6 13 3 7 1016.8 1016.7 0.0
03/09:30am 26.7 28.4 18.0 59 5.5 WNW 6 9 3 5 1016.9 1016.8 0.0
03/09:00am 25.4 27.3 16.8 59 5.3 W 2 6 1 3 1016.7 1016.6 0.0
03/08:30am 22.7 24.6 16.7 69 3.7 SW 2 4 1 2 1016.4 1016.3 0.0
03/08:00am 19.1 21.2 16.3 84 1.7 CALM 0 0 0 0 1016.4 1016.3 0.0
03/07:30am 16.2 17.2 14.4 89 1.0 SW 2 2 1 1 1016.1 1016.0 0.0
03/07:00am 15.8 16.2 13.8 88 1.1 WSW 4 4 2 2 1015.9 1015.8 0.0
03/06:30am 15.6 15.7 13.8 89 1.0 W 6 6 3 3 1015.7 1015.6 0.0
03/06:00am 17.1 18.2 14.6 85 1.4 S 2 2 1 1 1015.6 1015.5 0.0
03/05:30am 18.1 19.0 15.2 83 1.7 S 4 4 2 2 1015.4 1015.3 0.0
03/05:00am 18.0 19.0 15.3 84 1.6 SSE 4 6 2 3 1015.5 1015.4 0.0
03/04:30am 18.3 19.4 15.7 85 1.5 SSE 4 6 2 3 1015.3 1015.2 0.0
03/04:00am 17.2 18.7 14.7 85 1.4 CALM 0 0 0 0 1015.4 1015.3 0.0
03/03:30am 17.0 18.5 14.6 86 1.4 CALM 0 0 0 0 1015.5 1015.4 0.0
03/03:00am 17.0 17.9 14.1 83 1.7 SW 2 4 1 2 1015.6 1015.5 0.0
03/02:30am 18.1 19.9 15.4 84 1.6 CALM 0 0 0 0 1015.6 1015.5 0.0
03/02:00am 17.2 18.3 14.5 84 1.6 SW 2 4 1 2 1015.8 1015.7 0.0
03/01:30am 17.2 18.6 14.3 83 1.7 CALM 0 0 0 0 1016.0 1015.9 0.0
03/01:00am 17.2 18.5 14.1 82 1.8 CALM 0 0 0 0 1016.2 1016.1 0.0
03/12:30am 17.6 18.8 13.9 79 2.1 CALM 0 0 0 0 1016.2 1016.1 0.0
03/12:00am 19.0 20.4 14.5 75 2.6 CALM 0 0 0 0 1016.2 1016.1 0.0
 
Date/Time
CST
Temp
°C
App
Temp
°C
Dew
Point
Rel
Hum
%
Delta-T
°C
Wind Press
QNH
hPa
Press
MSL
hPa
Rain
since 9 am
mm
Dir
 
Spd
km/h
Gust
km/h
Spd
kts
Gust
kts
02/11:30pm 18.4 19.0 14.3 77 2.4 WSW 4 6 2 3 1016.2 1016.1 0.0
02/11:00pm 18.0 18.6 14.3 79 2.1 WSW 4 7 2 4 1016.0 1015.9 0.0
02/10:30pm 17.2 16.7 13.9 81 1.9 SW 9 15 5 8 1015.6 1015.5 0.0
02/10:00pm 17.6 18.6 13.3 76 2.4 CALM 0 0 0 0 1015.2 1015.1 0.0
02/09:30pm 18.8 19.3 13.9 73 2.8 NNE 4 4 2 2 1015.1 1015.0 0.0
02/09:00pm 19.2 19.6 13.8 71 3.1 N 4 4 2 2 1014.7 1014.6 0.0
02/08:30pm 19.5 19.8 13.4 68 3.5 N 4 4 2 2 1014.3 1014.2 0.0
02/08:00pm 21.6 22.7 13.5 60 4.7 CALM 0 0 0 0 1014.1 1014.0 0.0
02/07:30pm 22.2 22.1 13.3 57 5.1 NNW 6 6 3 3 1013.7 1013.6 0.0
02/07:00pm 24.4 24.1 13.3 50 6.5 N 7 11 4 6 1013.4 1013.3 0.0
02/06:30pm 27.0 26.1 13.7 44 7.9 N 11 17 6 9 1013.2 1013.1 0.0
02/06:00pm 29.2 28.2 12.2 35 9.9 NNE 9 19 5 10 1012.9 1012.8 0.0
02/05:30pm 31.9 29.4 8.2 23 13.1 E 11 19 6 10 1012.6 1012.5 0.0
02/05:00pm 32.8 30.3 8.3 22 13.7 E 11 20 6 11 1012.5 1012.4 0.0
02/04:30pm 32.7 29.3 7.5 21 13.9 SE 15 26 8 14 1012.5 1012.4 0.0
02/04:00pm 33.2 29.5 7.9 21 14.0 E 17 28 9 15 1012.5 1012.4 0.0
02/03:30pm 32.9 29.1 7.7 21 13.9 ESE 17 28 9 15 1012.8 1012.7 0.0
02/03:00pm 33.3 30.2 8.7 22 13.8 E 15 33 8 18 1013.1 1013.0 0.0
02/02:30pm 33.1 28.8 7.9 21 14.0 E 20 28 11 15 1013.6 1013.5 0.0
02/02:00pm 32.0 28.3 9.5 25 12.7 SE 19 26 10 14 1014.2 1014.1 0.0

Other Formats:

Comma delimited format used in spreadsheet applications
http://www.bom.gov.au/fwo/IDD60801/IDD60801.95121.axf

JavaScript Object Notation format (JSON) in row-major order
http://www.bom.gov.au/fwo/IDD60801/IDD60801.95121.json